Time;durP1;ratioP1;P1;durP2;ratioP2;P2;SDS_P1;SDS_P2;PMS_P1;PMS_P2;Temp;Humidity;BMP_temperature;BMP_pressure;BME280_temperature;BME280_humidity;BME280_pressure;Samples;Min_cycle;Max_cycle;Signal;HPM_P1;HPM_P2
2022/06/09 00:00:23;;;;;;;11.45;10.00;;;17.00;99.90;;;;;;2604883;46;20098;31
2022/06/09 00:03:01;;;;;;;18.70;13.50;;;17.00;99.90;;;;;;2586354;54;20027;31
2022/06/09 00:05:35;;;;;;;14.47;13.07;;;17.00;99.90;;;;;;2605021;46;21173;31
2022/06/09 00:08:10;;;;;;;13.25;11.93;;;17.00;99.90;;;;;;2586339;54;20935;31
2022/06/09 00:10:43;;;;;;;10.70;9.60;;;17.00;99.90;;;;;;2586131;54;20766;31
2022/06/09 00:13:15;;;;;;;12.07;10.70;;;16.90;99.90;;;;;;2586057;54;20897;31
2022/06/09 00:15:49;;;;;;;10.82;9.82;;;17.00;99.90;;;;;;2604637;47;20905;31
2022/06/09 00:18:26;;;;;;;11.60;10.50;;;16.90;99.90;;;;;;2586388;54;20026;31
2022/06/09 00:20:58;;;;;;;14.32;12.93;;;16.80;99.90;;;;;;2604817;47;20272;31
2022/06/09 00:23:32;;;;;;;11.18;9.13;;;16.80;99.90;;;;;;2604190;47;20033;31
2022/06/09 00:26:06;;;;;;;10.17;9.23;;;16.80;99.90;;;;;;2586358;54;20943;31
2022/06/09 00:28:41;;;;;;;13.10;11.18;;;16.80;99.90;;;;;;2604884;47;20023;31
2022/06/09 00:31:13;;;;;;;12.77;9.95;;;16.70;99.90;;;;;;2604484;47;20089;31
2022/06/09 00:33:49;;;;;;;12.10;10.85;;;16.70;99.90;;;;;;2585999;54;20746;31
2022/06/09 00:36:22;;;;;;;;;;;16.60;99.90;;;;;;2586508;54;20839;31
2022/06/09 00:38:54;;;;;;;12.87;9.20;;;16.60;99.90;;;;;;2604629;47;19957;31
2022/06/09 00:41:28;;;;;;;10.93;9.93;;;16.60;99.90;;;;;;2586205;54;20755;31
2022/06/09 00:44:19;;;;;;;11.32;10.13;;;16.50;99.90;;;;;;2586390;54;20931;31
2022/06/09 00:46:54;;;;;;;10.07;9.17;;;16.40;99.90;;;;;;2585921;54;20772;31
2022/06/09 00:49:34;;;;;;;13.90;12.25;;;16.40;99.90;;;;;;2586181;54;20899;31
2022/06/09 00:52:10;;;;;;;11.35;10.15;;;16.40;99.90;;;;;;2585990;54;20863;31
2022/06/09 00:54:44;;;;;;;11.05;10.00;;;16.30;99.90;;;;;;2586272;54;20747;31
2022/06/09 00:57:20;;;;;;;10.65;9.40;;;16.30;99.90;;;;;;2585953;54;20026;31
2022/06/09 00:59:56;;;;;;;8.85;7.75;;;16.20;99.90;;;;;;2585672;54;20743;31
2022/06/09 01:02:30;;;;;;;11.40;8.95;;;16.20;99.90;;;;;;2585882;54;20878;31
2022/06/09 01:05:08;;;;;;;10.83;9.47;;;16.20;99.90;;;;;;2604812;47;20846;31
2022/06/09 01:07:44;;;;;;;10.10;8.90;;;16.20;99.90;;;;;;2586151;54;20050;31
2022/06/09 01:10:18;;;;;;;13.40;11.40;;;16.20;99.90;;;;;;2604534;47;20080;31
2022/06/09 01:12:53;;;;;;;13.15;11.07;;;16.10;99.90;;;;;;2586024;54;20900;31
2022/06/09 01:15:32;;;;;;;15.93;12.05;;;16.10;99.90;;;;;;2585764;54;20898;31
2022/06/09 01:18:07;;;;;;;12.70;11.50;;;16.10;99.90;;;;;;2586081;54;20026;31
2022/06/09 01:20:44;;;;;;;11.75;10.55;;;16.00;99.90;;;;;;2586843;54;20342;31
2022/06/09 01:23:41;;;;;;;12.70;9.07;;;16.00;99.90;;;;;;2586591;54;20030;31
2022/06/09 01:26:32;;;;;;;10.27;9.27;;;16.00;99.90;;;;;;2586888;54;20863;31
2022/06/09 01:29:24;;;;;;;13.77;12.00;;;16.00;99.90;;;;;;2605108;46;21570;31
2022/06/09 01:31:55;;;;;;;12.00;10.75;;;16.00;99.90;;;;;;2587043;54;19935;31
2022/06/09 01:34:33;;;;;;;12.80;10.85;;;15.90;99.90;;;;;;2605481;46;20026;31
2022/06/09 01:37:09;;;;;;;11.60;10.20;;;16.00;99.90;;;;;;2586726;54;20030;31
2022/06/09 01:39:53;;;;;;;14.00;11.70;;;15.90;99.90;;;;;;2586815;54;20803;31
2022/06/09 01:42:29;;;;;;;13.75;10.25;;;15.90;99.90;;;;;;2604871;46;20725;31
2022/06/09 01:45:07;;;;;;;11.82;10.43;;;15.90;99.90;;;;;;2586594;54;20837;31
2022/06/09 01:47:43;;;;;;;13.10;8.90;;;15.90;99.90;;;;;;2605358;46;20053;31
2022/06/09 01:50:25;;;;;;;10.45;9.35;;;15.80;99.90;;;;;;2586564;54;20239;31
2022/06/09 01:52:59;;;;;;;13.55;11.90;;;15.80;99.90;;;;;;2586602;54;20046;31
2022/06/09 01:55:35;;;;;;;13.40;12.00;;;15.80;99.90;;;;;;2605486;46;20097;31
2022/06/09 01:58:07;;;;;;;9.90;8.90;;;15.80;99.90;;;;;;2702854;39;21673;31
2022/06/09 02:00:41;;;;;;;12.30;10.15;;;15.80;99.90;;;;;;2586641;54;20896;31
2022/06/09 02:03:16;;;;;;;9.50;8.50;;;15.80;99.90;;;;;;2604919;46;20058;31
2022/06/09 02:05:54;;;;;;;15.63;12.90;;;15.80;99.90;;;;;;2586943;54;20347;31
2022/06/09 02:08:25;;;;;;;13.85;12.38;;;15.80;99.90;;;;;;2585675;54;20026;31
2022/06/09 02:11:00;;;;;;;14.93;13.43;;;15.80;99.90;;;;;;2586604;54;20879;31
2022/06/09 02:13:39;;;;;;;16.53;12.40;;;15.80;99.90;;;;;;2586476;54;20026;31
2022/06/09 02:16:16;;;;;;;12.05;10.65;;;15.80;99.90;;;;;;2586710;54;20782;31
2022/06/09 02:18:53;;;;;;;14.43;11.77;;;15.80;99.90;;;;;;2586962;54;20112;31
2022/06/09 02:21:29;;;;;;;15.30;13.60;;;15.80;99.90;;;;;;2586423;54;20986;31
2022/06/09 02:24:00;;;;;;;;;;;15.80;99.90;;;;;;2586732;54;20909;31
2022/06/09 02:26:34;;;;;;;13.50;12.10;;;15.70;99.90;;;;;;2586965;54;19939;31
2022/06/09 02:29:07;;;;;;;11.45;9.90;;;15.70;99.90;;;;;;2604931;46;20042;31
2022/06/09 02:31:41;;;;;;;12.30;11.00;;;15.70;99.90;;;;;;2586563;54;20796;31
2022/06/09 02:34:14;;;;;;;14.10;12.05;;;15.70;99.90;;;;;;2604592;46;20027;31
2022/06/09 02:36:50;;;;;;;16.52;14.60;;;15.70;99.90;;;;;;2586585;54;20023;31
2022/06/09 02:39:22;;;;;;;18.95;15.27;;;15.70;99.90;;;;;;2586575;54;20026;31
2022/06/09 02:41:55;;;;;;;17.25;15.10;;;15.70;99.90;;;;;;2586564;54;20053;31
2022/06/09 02:44:29;;;;;;;16.00;14.32;;;15.60;99.90;;;;;;2586372;54;21025;31
2022/06/09 02:47:02;;;;;;;17.92;16.05;;;15.70;99.90;;;;;;2586481;54;20903;31
2022/06/09 02:49:37;;;;;;;16.98;15.00;;;15.70;99.90;;;;;;2586482;54;20072;31
2022/06/09 02:52:13;;;;;;;16.25;14.48;;;15.80;99.90;;;;;;2586424;54;20026;31
2022/06/09 02:54:47;;;;;;;14.50;13.00;;;15.70;99.90;;;;;;2605053;46;20081;31
2022/06/09 02:57:20;;;;;;;18.00;16.17;;;15.80;99.90;;;;;;2586395;54;20064;31
2022/06/09 02:59:54;;;;;;;18.98;15.95;;;15.80;99.90;;;;;;2755207;31;20658;31
2022/06/09 03:02:28;;;;;;;18.30;16.33;;;15.80;99.90;;;;;;2585506;54;20030;31
2022/06/09 03:05:04;;;;;;;13.70;12.30;;;15.80;99.90;;;;;;2586502;54;20881;31
2022/06/09 03:07:41;;;;;;;18.55;14.30;;;15.80;99.90;;;;;;2586369;54;20852;31
2022/06/09 03:10:15;;;;;;;13.53;11.47;;;15.90;99.90;;;;;;2586380;54;20501;31
2022/06/09 03:12:50;;;;;;;15.93;13.80;;;15.90;99.90;;;;;;2586402;54;20072;31
2022/06/09 03:15:30;;;;;;;17.85;15.95;;;15.90;99.90;;;;;;2586206;54;20157;31
2022/06/09 03:18:04;;;;;;;14.27;12.88;;;16.00;99.90;;;;;;2586729;54;20671;31
2022/06/09 03:20:38;;;;;;;19.80;17.40;;;16.00;99.90;;;;;;2586515;54;20031;31
2022/06/09 03:23:15;;;;;;;18.77;16.85;;;16.00;99.90;;;;;;2586469;54;20069;31
2022/06/09 03:25:49;;;;;;;18.65;16.70;;;16.00;99.90;;;;;;2586331;54;21019;31
2022/06/09 03:28:24;;;;;;;20.67;17.70;;;16.10;99.90;;;;;;2586148;54;20030;31
2022/06/09 03:31:01;;;;;;;25.17;22.40;;;16.20;99.90;;;;;;2586376;54;20762;31
2022/06/09 03:33:35;;;;;;;20.67;18.43;;;16.10;99.90;;;;;;2586548;54;20909;31
2022/06/09 03:36:11;;;;;;;21.50;19.07;;;16.20;99.90;;;;;;2586140;54;20031;31
2022/06/09 03:38:48;;;;;;;22.90;20.40;;;16.20;99.90;;;;;;2586111;54;20030;31
2022/06/09 03:41:20;;;;;;;21.75;19.50;;;16.30;99.90;;;;;;2585088;54;20115;31
2022/06/09 03:43:55;;;;;;;23.67;20.83;;;16.30;99.90;;;;;;2684003;39;20504;31
2022/06/09 03:46:29;;;;;;;21.98;19.20;;;16.40;99.90;;;;;;2586212;54;20026;31
2022/06/09 03:49:02;;;;;;;22.60;20.15;;;16.40;99.90;;;;;;2586070;54;20992;31
2022/06/09 03:51:37;;;;;;;20.60;17.30;;;16.50;99.90;;;;;;2586277;54;20863;31
2022/06/09 03:54:22;;;;;;;20.67;17.52;;;16.50;99.90;;;;;;2586192;54;20748;31
2022/06/09 03:56:56;;;;;;;17.73;16.02;;;16.50;99.90;;;;;;2604793;46;20027;31
2022/06/09 03:59:33;;;;;;;22.77;20.23;;;16.50;99.90;;;;;;2585969;54;20035;31
2022/06/09 04:02:12;;;;;;;19.85;17.85;;;16.60;99.90;;;;;;2702418;39;20396;31
2022/06/09 04:04:49;;;;;;;23.60;18.03;;;16.60;99.90;;;;;;2586514;54;20859;31
2022/06/09 04:07:24;;;;;;;30.92;26.83;;;16.60;99.90;;;;;;2604615;46;20960;31
2022/06/09 04:10:00;;;;;;;22.50;20.10;;;16.70;99.90;;;;;;2586229;54;20054;31
2022/06/09 04:12:35;;;;;;;23.42;20.88;;;16.70;99.90;;;;;;2604900;47;20241;31
2022/06/09 04:15:13;;;;;;;33.50;25.05;;;16.70;99.90;;;;;;2586097;54;20885;31
2022/06/09 04:17:46;;;;;;;21.35;19.15;;;16.80;99.90;;;;;;2586028;54;20932;31
2022/06/09 04:20:23;;;;;;;19.58;15.57;;;16.80;99.90;;;;;;2585340;54;20050;31
2022/06/09 04:22:59;;;;;;;17.70;15.60;;;16.90;99.90;;;;;;2604842;47;20031;31
2022/06/09 04:25:35;;;;;;;23.60;21.00;;;16.90;99.90;;;;;;2586107;54;19954;31
2022/06/09 04:28:10;;;;;;;24.20;20.20;;;16.90;99.90;;;;;;2586342;54;20890;31
2022/06/09 04:30:46;;;;;;;20.85;18.55;;;16.90;99.90;;;;;;2586250;54;20026;31
2022/06/09 04:33:20;;;;;;;23.75;21.25;;;17.00;99.90;;;;;;2586030;54;20775;31
2022/06/09 04:35:54;;;;;;;19.85;17.90;;;16.90;99.90;;;;;;2586128;54;20029;31
2022/06/09 04:38:29;;;;;;;15.00;12.30;;;17.00;99.90;;;;;;2586041;54;20868;31
2022/06/09 04:41:04;;;;;;;28.60;23.40;;;17.10;99.90;;;;;;2586177;54;20739;31
2022/06/09 04:43:40;;;;;;;26.25;23.50;;;17.20;99.90;;;;;;2586038;54;20881;31
2022/06/09 04:46:19;;;;;;;23.60;21.20;;;17.30;99.90;;;;;;2585209;54;20060;31
2022/06/09 04:49:03;;;;;;;24.25;21.73;;;17.30;99.90;;;;;;2585980;54;20980;31
2022/06/09 04:51:39;;;;;;;18.20;16.30;;;17.40;99.90;;;;;;2586347;54;20445;31
2022/06/09 04:54:15;;;;;;;26.33;23.52;;;17.50;99.90;;;;;;2585840;54;20277;31
2022/06/09 05:00:45;;;;;;;25.27;19.17;;;17.50;99.90;;;;;;2679424;39;20025;31
2022/06/09 05:03:20;;;;;;;23.35;20.85;;;17.60;99.90;;;;;;2590563;46;20800;31
2022/06/09 05:05:57;;;;;;;20.03;18.03;;;17.60;99.90;;;;;;2586761;54;20029;31
2022/06/09 05:08:32;;;;;;;28.40;19.90;;;17.60;99.90;;;;;;2586760;54;20026;31
2022/06/09 05:11:06;;;;;;;25.50;21.90;;;17.70;99.90;;;;;;2586806;54;20242;31
2022/06/09 05:13:39;;;;;;;25.30;22.40;;;17.80;99.90;;;;;;2587047;54;21278;31
2022/06/09 05:16:15;;;;;;;30.90;26.27;;;17.90;99.90;;;;;;2586809;54;20854;31
2022/06/09 05:18:50;;;;;;;23.35;20.95;;;17.90;99.90;;;;;;2586803;54;20044;31
2022/06/09 05:21:24;;;;;;;25.90;22.57;;;17.90;99.90;;;;;;2605387;46;20152;31
2022/06/09 05:23:58;;;;;;;25.10;22.50;;;17.90;99.90;;;;;;2586914;54;20026;31
2022/06/09 05:26:31;;;;;;;25.77;22.47;;;17.90;99.90;;;;;;2605299;46;19935;31
2022/06/09 05:29:03;;;;;;;30.55;27.30;;;17.90;99.90;;;;;;2604997;46;21904;31
2022/06/09 05:31:40;;;;;;;23.10;20.70;;;17.80;99.90;;;;;;2605283;46;20757;31
2022/06/09 05:34:14;;;;;;;32.95;27.35;;;17.90;99.90;;;;;;2605297;46;20885;31
2022/06/09 05:36:47;;;;;;;24.95;22.35;;;17.80;99.90;;;;;;2604690;46;20022;31
2022/06/09 05:44:54;;;;;;;27.35;24.52;;;17.90;99.90;;;;;;2586724;54;20022;31
2022/06/09 05:47:29;;;;;;;28.90;25.67;;;17.90;99.90;;;;;;2586711;54;20057;31
2022/06/09 05:50:03;;;;;;;28.65;25.60;;;18.00;99.90;;;;;;2586654;54;20026;31
2022/06/09 05:52:37;;;;;;;28.90;23.40;;;18.00;99.90;;;;;;2586528;54;20033;31
2022/06/09 05:55:12;;;;;;;22.83;20.42;;;18.00;99.90;;;;;;2586594;54;20770;31
2022/06/09 05:57:44;;;;;;;21.00;18.70;;;18.10;99.90;;;;;;2586760;54;20942;31
2022/06/09 06:00:19;;;;;;;25.17;22.48;;;18.10;99.90;;;;;;2586655;54;20940;31
2022/06/09 06:02:54;;;;;;;24.30;21.70;;;18.10;99.90;;;;;;2586459;54;19935;31
2022/06/09 06:08:14;;;;;;;26.42;23.60;;;18.20;99.90;;;;;;2604798;46;20033;31
2022/06/09 06:10:48;;;;;;;25.00;20.20;;;18.30;99.90;;;;;;2605001;46;20069;31
2022/06/09 06:13:23;;;;;;;27.23;24.27;;;18.50;99.90;;;;;;2605041;46;20992;31
2022/06/09 06:15:58;;;;;;;23.67;21.10;;;18.60;99.90;;;;;;2586635;54;20773;31
2022/06/09 06:18:52;;;;;;;28.30;23.90;;;18.70;99.90;;;;;;2604860;46;20042;31
2022/06/09 06:21:27;;;;;;;28.90;23.40;;;18.90;99.90;;;;;;2586861;54;20281;31
2022/06/09 06:24:00;;;;;;;30.23;26.37;;;18.90;99.90;;;;;;2604837;46;20027;31
2022/06/09 06:26:33;;;;;;;25.63;22.73;;;19.00;99.90;;;;;;2605055;46;20242;31
2022/06/09 06:29:07;;;;;;;27.33;24.43;;;19.00;99.90;;;;;;2586548;54;20257;31
2022/06/09 06:31:42;;;;;;;27.10;24.23;;;19.00;99.90;;;;;;2586651;54;21029;31
2022/06/09 06:34:14;;;;;;;27.67;24.48;;;19.00;99.90;;;;;;2586475;54;20204;31
2022/06/09 06:36:48;;;;;;;26.75;23.25;;;19.10;99.90;;;;;;2586323;54;20799;31
2022/06/09 06:39:24;;;;;;;29.17;26.20;;;19.10;99.90;;;;;;2605418;46;20889;31
2022/06/09 06:41:56;;;;;;;24.80;22.15;;;19.20;99.90;;;;;;2604726;46;20022;31
2022/06/09 06:44:37;;;;;;;22.33;19.90;;;19.20;99.90;;;;;;2586492;54;20122;31
2022/06/09 06:47:12;;;;;;;26.50;23.80;;;19.30;99.90;;;;;;2586386;54;20089;31
2022/06/09 06:49:46;;;;;;;28.20;25.30;;;19.40;99.90;;;;;;2604751;46;20294;31
2022/06/09 06:52:23;;;;;;;26.27;23.15;;;19.70;99.90;;;;;;2586520;54;20051;31
2022/06/09 06:54:57;;;;;;;22.55;20.40;;;20.10;99.90;;;;;;2586399;54;20034;31
2022/06/09 06:57:33;;;;;;;28.40;25.40;;;20.40;99.90;;;;;;2604919;46;20034;31
2022/06/09 07:00:08;;;;;;;24.13;21.75;;;20.60;99.90;;;;;;2586457;54;20247;31
2022/06/09 07:02:43;;;;;;;23.88;21.38;;;20.70;99.90;;;;;;2586624;54;20868;31
2022/06/09 07:05:36;;;;;;;28.47;23.33;;;20.80;99.90;;;;;;2586076;54;20026;31
2022/06/09 07:08:16;;;;;;;27.65;24.85;;;20.90;99.90;;;;;;2586523;54;21070;31
2022/06/09 07:10:48;;;;;;;28.20;25.57;;;20.90;99.90;;;;;;2586641;54;20834;31
2022/06/09 07:13:22;;;;;;;23.85;21.45;;;21.00;99.90;;;;;;2586608;54;20029;31
2022/06/09 07:15:56;;;;;;;22.40;20.02;;;21.10;99.90;;;;;;2604520;46;20974;31
2022/06/09 07:18:35;;;;;;;23.85;21.40;;;21.20;99.90;;;;;;2604982;46;20849;31
2022/06/09 07:21:07;;;;;;;20.85;18.48;;;21.40;99.90;;;;;;2586627;54;20027;31
2022/06/09 07:23:45;;;;;;;24.20;21.60;;;21.70;99.90;;;;;;2586429;54;20768;31
2022/06/09 07:26:17;;;;;;;23.20;21.00;;;21.90;99.90;;;;;;2586663;54;20033;31
2022/06/09 07:28:50;;;;;;;21.63;18.70;;;22.10;99.90;;;;;;2604616;46;19935;31
2022/06/09 07:31:22;;;;;;;19.70;17.70;;;22.30;99.90;;;;;;2585486;54;20077;31
2022/06/09 07:33:56;;;;;;;19.15;17.25;;;22.50;99.90;;;;;;2586683;54;20889;31
2022/06/09 07:36:30;;;;;;;17.90;16.30;;;22.90;99.90;;;;;;2605184;46;20027;31
2022/06/09 07:39:07;;;;;;;14.55;13.15;;;23.30;99.90;;;;;;2586476;54;20037;31
2022/06/09 07:41:41;;;;;;;15.68;14.27;;;23.70;99.90;;;;;;2586393;54;20848;31
2022/06/09 07:44:16;;;;;;;16.73;15.10;;;24.00;99.90;;;;;;2586552;54;20038;31
2022/06/09 07:46:49;;;;;;;15.77;14.15;;;24.10;99.90;;;;;;2586286;54;20870;31
2022/06/09 07:49:21;;;;;;;15.43;13.93;;;24.30;99.90;;;;;;2604937;46;20903;31
2022/06/09 07:51:54;;;;;;;15.00;13.60;;;24.30;99.90;;;;;;2604635;46;20761;31
2022/06/09 07:54:31;;;;;;;15.00;13.50;;;24.20;99.90;;;;;;2586063;54;20049;31
2022/06/09 07:57:04;;;;;;;14.32;12.93;;;24.20;99.90;;;;;;2584735;54;20034;31
2022/06/09 07:59:37;;;;;;;12.68;11.20;;;24.10;99.90;;;;;;2586208;54;20120;31
2022/06/09 08:02:10;;;;;;;14.40;13.10;;;24.20;99.90;;;;;;2586443;54;20026;31
2022/06/09 08:04:43;;;;;;;14.45;13.15;;;24.00;99.90;;;;;;2585763;54;20114;31
2022/06/09 08:07:18;;;;;;;16.83;15.32;;;24.00;99.90;;;;;;2604809;46;20050;31
2022/06/09 08:09:53;;;;;;;17.00;15.40;;;23.90;99.90;;;;;;2586157;54;20063;31
2022/06/09 08:12:26;;;;;;;;;;;23.80;99.90;;;;;;2585993;54;20053;31
2022/06/09 08:14:58;;;;;;;17.07;15.27;;;23.80;99.90;;;;;;2604531;47;19935;31
2022/06/09 08:17:31;;;;;;;16.08;14.48;;;23.80;99.90;;;;;;2586098;54;21092;31
2022/06/09 08:20:06;;;;;;;14.65;13.15;;;23.80;99.90;;;;;;2586358;54;20023;31
2022/06/09 08:22:43;;;;;;;15.55;13.95;;;23.80;99.90;;;;;;2586067;54;20888;31
2022/06/09 08:25:19;;;;;;;14.80;12.65;;;23.80;99.90;;;;;;2586268;54;20080;31
2022/06/09 08:27:54;;;;;;;14.60;13.00;;;23.80;99.90;;;;;;2586908;54;20031;31
2022/06/09 08:30:27;;;;;;;14.27;12.60;;;23.80;99.90;;;;;;2586737;54;20050;31
2022/06/09 08:33:00;;;;;;;11.95;10.85;;;23.90;99.90;;;;;;2586844;54;20027;31
2022/06/09 08:35:36;;;;;;;13.50;12.20;;;23.80;99.90;;;;;;2586706;54;20034;31
2022/06/09 08:38:09;;;;;;;12.67;11.50;;;23.80;99.90;;;;;;2604963;46;20027;31
2022/06/09 08:40:47;;;;;;;13.20;12.00;;;24.00;99.90;;;;;;2586919;54;21195;31
2022/06/09 08:43:26;;;;;;;13.70;12.32;;;23.90;99.90;;;;;;2605049;46;20183;31
2022/06/09 08:45:58;;;;;;;13.00;11.70;;;24.00;99.90;;;;;;2587138;54;20826;31
2022/06/09 08:48:36;;;;;;;14.20;12.80;;;23.90;99.90;;;;;;2586786;54;20727;31
2022/06/09 08:51:09;;;;;;;14.80;13.40;;;23.80;99.90;;;;;;2605703;46;20914;31
2022/06/09 08:53:43;;;;;;;13.95;12.57;;;23.90;99.90;;;;;;2587025;54;20026;31
2022/06/09 08:56:22;;;;;;;14.40;12.93;;;23.90;99.90;;;;;;2586826;54;20945;31
2022/06/09 08:58:58;;;;;;;12.82;11.73;;;24.00;99.90;;;;;;2586709;54;20862;31
2022/06/09 09:01:41;;;;;;;13.40;12.18;;;24.00;99.90;;;;;;2586969;54;20756;31
2022/06/09 09:04:19;;;;;;;13.30;11.63;;;24.00;99.90;;;;;;2587031;54;20027;31
2022/06/09 09:06:53;;;;;;;12.30;11.10;;;24.10;99.90;;;;;;2605248;46;20037;31
2022/06/09 09:09:30;;;;;;;14.60;11.65;;;24.10;99.90;;;;;;2605587;46;20238;31
2022/06/09 09:12:08;;;;;;;12.30;11.00;;;24.40;99.90;;;;;;2605337;46;20180;31
2022/06/09 09:14:42;;;;;;;13.87;12.53;;;24.70;99.90;;;;;;2586597;54;20842;31
2022/06/09 09:17:18;;;;;;;12.03;10.83;;;24.90;99.90;;;;;;2586842;54;20048;31
2022/06/09 09:19:52;;;;;;;12.40;10.70;;;25.00;99.90;;;;;;2586924;54;20914;31
2022/06/09 09:22:28;;;;;;;10.45;9.40;;;25.00;99.90;;;;;;2586851;54;20857;31
2022/06/09 09:25:08;;;;;;;11.35;10.30;;;24.90;99.90;;;;;;2586855;54;20038;31
2022/06/09 09:27:51;;;;;;;10.30;9.30;;;24.90;99.90;;;;;;2605043;46;20034;31
2022/06/09 09:30:24;;;;;;;10.77;9.77;;;24.80;99.90;;;;;;2586770;54;20028;31
2022/06/09 09:32:58;;;;;;;10.60;9.70;;;24.80;99.90;;;;;;2605681;46;20053;31
2022/06/09 09:35:38;;;;;;;10.85;9.90;;;24.80;99.90;;;;;;2586793;54;20926;31
2022/06/09 09:38:13;;;;;;;11.98;10.68;;;24.90;99.90;;;;;;2586396;54;20027;31
2022/06/09 09:40:47;;;;;;;11.88;10.60;;;25.00;99.90;;;;;;2586663;54;20051;31
2022/06/09 09:43:23;;;;;;;11.25;10.25;;;25.00;99.90;;;;;;2586820;54;20022;31
2022/06/09 09:45:57;;;;;;;10.05;9.15;;;25.00;99.90;;;;;;2586468;54;20867;31
2022/06/09 09:48:33;;;;;;;9.70;8.80;;;25.00;99.90;;;;;;2586612;54;20880;31
2022/06/09 09:51:11;;;;;;;12.30;9.80;;;25.00;99.90;;;;;;2586860;54;20082;31
2022/06/09 09:53:57;;;;;;;8.95;8.15;;;25.10;99.90;;;;;;2586552;54;20057;31
2022/06/09 09:56:36;;;;;;;9.65;8.75;;;25.30;99.90;;;;;;2586978;54;21927;31
2022/06/09 09:59:25;;;;;;;8.25;7.40;;;25.40;99.90;;;;;;2605341;46;20751;31
2022/06/09 10:10:58;;;;;;;10.60;9.50;;;25.20;99.90;;;;;;2586562;54;20022;31
2022/06/09 10:13:44;;;;;;;11.40;10.30;;;25.20;99.90;;;;;;2605175;46;20248;31
2022/06/09 10:16:21;;;;;;;12.30;11.20;;;25.10;99.90;;;;;;2604735;46;20059;31
2022/06/09 10:19:08;;;;;;;13.82;12.45;;;25.10;99.90;;;;;;2586324;54;20031;31
2022/06/09 10:21:56;;;;;;;13.20;12.00;;;25.00;99.90;;;;;;2605038;46;20037;31
2022/06/09 10:24:44;;;;;;;13.18;12.07;;;24.90;99.90;;;;;;2605289;46;20022;31
2022/06/09 10:27:18;;;;;;;13.32;12.00;;;24.90;99.90;;;;;;2586661;54;20929;31
2022/06/09 10:29:54;;;;;;;13.50;12.10;;;24.90;99.90;;;;;;2586550;54;20867;31
2022/06/09 10:32:32;;;;;;;13.87;12.57;;;25.00;99.90;;;;;;2586588;54;20030;31
2022/06/09 10:35:08;;;;;;;16.05;14.40;;;25.10;99.90;;;;;;2586330;54;21113;31
2022/06/09 10:37:44;;;;;;;13.95;12.75;;;25.10;99.90;;;;;;2605158;46;20945;31
2022/06/09 10:40:21;;;;;;;15.25;13.65;;;25.10;99.90;;;;;;2604928;46;20908;31
2022/06/09 10:42:56;;;;;;;13.45;12.25;;;25.10;99.90;;;;;;2586658;54;20030;31
2022/06/09 10:45:29;;;;;;;11.93;10.82;;;25.10;99.90;;;;;;2586411;54;20052;31
2022/06/09 10:56:34;;;;;;;13.20;11.65;;;24.80;99.90;;;;;;2586576;54;20049;31
2022/06/09 10:59:11;;;;;;;12.60;11.50;;;24.70;99.90;;;;;;2604691;46;20133;31
2022/06/09 11:01:46;;;;;;;13.30;12.00;;;24.60;99.90;;;;;;2586355;54;25125;31
2022/06/09 11:04:22;;;;;;;13.00;11.73;;;24.60;99.90;;;;;;2586328;54;20879;31
2022/06/09 11:07:01;;;;;;;12.10;11.00;;;24.60;99.90;;;;;;2586463;54;20863;31
2022/06/09 11:09:37;;;;;;;12.85;11.55;;;24.60;99.90;;;;;;2586508;54;20030;31
2022/06/09 11:12:16;;;;;;;14.10;12.75;;;24.50;99.90;;;;;;2586768;54;20890;31
2022/06/09 11:15:15;;;;;;;12.95;11.63;;;24.50;99.90;;;;;;2586277;54;20906;31
2022/06/09 11:17:55;;;;;;;11.85;10.75;;;24.50;99.90;;;;;;2604869;46;20871;31
2022/06/09 11:20:35;;;;;;;12.93;11.68;;;24.50;99.90;;;;;;2585870;54;20089;31
2022/06/09 11:23:13;;;;;;;10.85;9.75;;;24.60;99.90;;;;;;2586422;54;20906;31
2022/06/09 11:25:51;;;;;;;11.20;10.20;;;24.80;99.90;;;;;;2586338;54;20057;31
2022/06/09 11:28:45;;;;;;;10.93;9.95;;;24.90;99.90;;;;;;2586297;54;20033;31
2022/06/09 11:31:46;;;;;;;11.32;10.32;;;25.00;99.90;;;;;;2586311;54;20031;31
2022/06/09 11:34:41;;;;;;;10.80;9.80;;;25.00;99.90;;;;;;2585909;54;20037;31
2022/06/09 11:37:22;;;;;;;12.30;9.80;;;25.10;99.90;;;;;;2604465;46;20904;31
2022/06/09 11:39:59;;;;;;;10.02;9.05;;;25.00;99.90;;;;;;2604995;46;20880;31
2022/06/09 11:42:45;;;;;;;10.35;9.35;;;25.00;99.90;;;;;;2586198;54;20876;31
2022/06/09 11:45:17;;;;;;;11.60;10.45;;;24.90;99.90;;;;;;2586493;54;20914;31
2022/06/09 11:47:51;;;;;;;11.25;10.15;;;24.90;99.90;;;;;;2604777;46;20058;31
2022/06/09 11:50:26;;;;;;;10.25;9.10;;;24.80;99.90;;;;;;2586097;54;20102;31
2022/06/09 11:53:03;;;;;;;11.90;10.80;;;24.70;99.90;;;;;;2604425;46;20955;31
2022/06/09 11:58:45;;;;;;;11.10;10.00;;;24.40;99.90;;;;;;2586232;54;20026;31
2022/06/09 12:01:35;;;;;;;10.68;9.65;;;24.30;99.90;;;;;;2585873;54;20023;31
2022/06/09 12:04:38;;;;;;;11.15;9.90;;;24.40;99.90;;;;;;2604689;46;20022;31
2022/06/09 12:07:22;;;;;;;11.60;10.45;;;24.40;99.90;;;;;;2586392;54;20038;31
2022/06/09 12:10:05;;;;;;;11.23;10.13;;;24.30;99.90;;;;;;2586173;54;20883;31
2022/06/09 12:12:41;;;;;;;10.07;9.07;;;24.30;99.90;;;;;;2604929;46;20885;31
2022/06/09 12:15:25;;;;;;;13.67;12.40;;;24.20;99.90;;;;;;2586377;54;20981;31
2022/06/09 12:18:06;;;;;;;12.55;10.98;;;24.10;99.90;;;;;;2586101;54;20243;31
2022/06/09 12:20:40;;;;;;;9.30;8.45;;;24.10;99.90;;;;;;2586031;54;20037;31
2022/06/09 12:23:31;;;;;;;13.18;8.65;;;24.00;99.90;;;;;;2585647;54;20030;31
2022/06/09 12:26:36;;;;;;;13.98;12.65;;;23.90;99.90;;;;;;2586246;54;20894;31
2022/06/09 12:29:46;;;;;;;16.47;14.97;;;23.90;99.90;;;;;;2585973;54;20031;31
2022/06/09 12:32:42;;;;;;;17.02;15.52;;;23.70;99.90;;;;;;2585810;54;20254;31
2022/06/09 12:35:28;;;;;;;16.50;14.90;;;23.60;99.90;;;;;;2684216;39;20434;31
2022/06/09 12:38:05;;;;;;;16.15;14.75;;;23.60;99.90;;;;;;2586041;54;20763;31
2022/06/09 12:40:45;;;;;;;16.48;14.80;;;23.60;99.90;;;;;;2586226;54;20919;31
2022/06/09 12:43:29;;;;;;;15.35;13.73;;;23.50;99.90;;;;;;2585951;54;20046;31
2022/06/09 12:46:17;;;;;;;15.93;14.43;;;23.60;99.90;;;;;;2585970;54;20105;31
2022/06/09 12:48:51;;;;;;;13.93;12.73;;;23.70;99.90;;;;;;2585960;54;20835;31
2022/06/09 12:51:30;;;;;;;15.23;13.82;;;23.60;99.90;;;;;;2586019;54;20950;31
2022/06/09 12:54:04;;;;;;;15.73;14.23;;;23.70;99.90;;;;;;2604442;47;20770;31
2022/06/09 12:56:43;;;;;;;16.65;12.65;;;23.80;99.90;;;;;;2586166;54;20769;31
2022/06/09 12:59:20;;;;;;;13.65;12.23;;;23.80;99.90;;;;;;2586128;54;20873;31
2022/06/09 13:02:21;;;;;;;11.60;10.60;;;23.80;99.90;;;;;;2604657;47;20877;31
2022/06/09 13:04:57;;;;;;;10.35;8.80;;;23.80;99.90;;;;;;2586149;54;20029;31
2022/06/09 13:07:31;;;;;;;8.10;7.28;;;23.80;99.90;;;;;;2604196;47;20022;31
2022/06/09 13:10:10;;;;;;;9.00;7.00;;;23.90;99.90;;;;;;2585770;54;20034;31
2022/06/09 13:12:54;;;;;;;8.60;7.57;;;24.20;99.90;;;;;;2586422;54;20030;31
2022/06/09 13:15:37;;;;;;;8.00;7.20;;;24.50;99.90;;;;;;2586957;54;20962;31
2022/06/09 13:18:21;;;;;;;10.70;7.10;;;24.70;99.90;;;;;;2587082;54;20886;31
2022/06/09 13:20:55;;;;;;;8.77;7.35;;;24.70;99.90;;;;;;2605604;46;20052;31
2022/06/09 13:23:31;;;;;;;7.23;6.63;;;24.70;99.90;;;;;;2586977;54;20915;31
2022/06/09 13:26:03;;;;;;;8.90;6.85;;;24.80;99.90;;;;;;2586704;54;20373;31
2022/06/09 13:28:40;;;;;;;7.90;7.10;;;24.80;99.90;;;;;;2586760;54;20049;31
2022/06/09 13:31:27;;;;;;;7.47;6.78;;;24.80;99.90;;;;;;2586864;54;20030;31
2022/06/09 13:34:07;;;;;;;9.00;8.13;;;24.80;99.90;;;;;;2586760;54;19935;31
2022/06/09 13:36:39;;;;;;;9.20;8.10;;;24.70;99.90;;;;;;2586442;54;20113;31
2022/06/09 13:39:29;;;;;;;8.03;7.23;;;24.70;99.90;;;;;;2586484;54;20089;31
2022/06/09 13:42:07;;;;;;;8.32;6.95;;;24.80;99.90;;;;;;2755590;31;21553;31
2022/06/09 13:44:42;;;;;;;8.57;7.65;;;24.90;99.90;;;;;;2586765;54;21008;31
2022/06/09 13:47:16;;;;;;;;;;;24.80;99.90;;;;;;2605719;46;20026;31
2022/06/09 13:50:05;;;;;;;7.13;6.43;;;25.00;99.90;;;;;;2586566;54;20682;31
2022/06/09 13:52:41;;;;;;;6.90;6.25;;;25.10;99.90;;;;;;2605483;46;20027;31
2022/06/09 13:55:14;;;;;;;6.80;6.20;;;25.20;99.90;;;;;;2586380;54;20029;31
2022/06/09 13:57:49;;;;;;;6.82;5.88;;;25.30;99.90;;;;;;2604143;46;20033;31
2022/06/09 14:00:29;;;;;;;7.68;6.20;;;25.40;99.90;;;;;;2586533;54;19941;31
2022/06/09 14:03:03;;;;;;;6.25;5.55;;;25.60;99.90;;;;;;2586626;54;20971;31